Time;durP1;ratioP1;P1;durP2;ratioP2;P2;SDS_P1;SDS_P2;PMS_P1;PMS_P2;Temp;Humidity;BMP_temperature;BMP_pressure;BME280_temperature;BME280_humidity;BME280_pressure;Samples;Min_cycle;Max_cycle;Signal;HPM_P1;HPM_P2
2023/06/03 00:01:11;;;;;;;1.17;1.07;;;;;;;19.27;57.94;96498.81;10484377;28;20302;-32
2023/06/03 00:06:12;;;;;;;0.85;0.85;;;;;;;19.32;57.60;96486.91;10494117;28;20108;-33
2023/06/03 00:11:14;;;;;;;1.30;1.10;;;;;;;19.16;57.93;96495.47;10489426;28;20485;-33
2023/06/03 00:16:14;;;;;;;1.20;1.10;;;;;;;19.09;57.78;96493.81;10492915;28;20044;-32
2023/06/03 00:21:16;;;;;;;1.10;1.00;;;;;;;19.03;57.83;96482.00;10491216;28;20040;-32
2023/06/03 00:26:16;;;;;;;1.10;1.00;;;;;;;19.04;57.10;96491.31;10491251;28;20036;-32
2023/06/03 00:31:21;;;;;;;1.20;1.10;;;;;;;19.02;57.21;96487.09;10473921;28;20383;-32
2023/06/03 00:36:21;;;;;;;1.40;1.30;;;;;;;19.01;57.54;96490.47;10504661;28;20037;-32
2023/06/03 00:41:21;;;;;;;1.57;1.10;;;;;;;19.01;57.46;96493.00;10473860;28;20064;-33
2023/06/03 00:46:22;;;;;;;1.30;1.20;;;;;;;18.99;57.30;96498.09;10498055;28;20386;-32
2023/06/03 00:51:22;;;;;;;1.13;1.00;;;;;;;18.99;57.19;96498.09;10470904;28;20390;-32
2023/06/03 00:56:23;;;;;;;1.25;1.15;;;;;;;19.11;58.55;96498.03;10486461;28;20048;-32
2023/06/03 01:01:24;;;;;;;1.20;1.10;;;;;;;19.30;58.15;96494.56;10493304;28;20402;-32
2023/06/03 01:06:45;;;;;;;1.27;1.17;;;;;;;19.25;57.82;96495.44;10496760;28;20557;-34
2023/06/03 01:12:03;;;;;;;0.90;0.90;;;;;;;19.13;57.92;96491.25;10470860;28;20120;-34
2023/06/03 01:17:09;;;;;;;1.30;1.20;;;;;;;19.08;57.79;96479.44;10460338;28;20115;-33
2023/06/03 01:22:12;;;;;;;1.02;1.02;;;;;;;19.03;57.81;96479.47;10490815;28;20111;-32
2023/06/03 01:27:12;;;;;;;1.33;1.00;;;;;;;19.02;57.43;96471.84;10497439;28;20115;-34
2023/06/03 01:32:15;;;;;;;0.80;0.77;;;;;;;19.01;57.21;96470.19;10487614;28;20111;-33
2023/06/03 01:37:16;;;;;;;1.23;1.10;;;;;;;19.01;57.29;96475.25;10490338;28;20067;-33
2023/06/03 01:42:17;;;;;;;1.30;1.20;;;;;;;19.00;57.35;96478.66;10486772;28;20498;-33
2023/06/03 01:47:17;;;;;;;0.93;0.90;;;;;;;19.00;57.18;96471.03;10472395;28;20048;-33
2023/06/03 01:52:20;;;;;;;1.30;1.20;;;;;;;19.01;58.48;96475.25;10464742;28;20279;-32
2023/06/03 01:57:20;;;;;;;0.98;0.95;;;;;;;19.23;57.94;96486.97;10472314;28;20275;-33
2023/06/03 02:02:21;;;;;;;1.27;1.00;;;;;;;19.30;57.57;96474.25;10473890;28;20472;-32
2023/06/03 02:07:25;;;;;;;1.20;1.10;;;;;;;19.17;57.97;96476.84;10472170;28;20402;-33
2023/06/03 02:12:26;;;;;;;0.80;0.80;;;;;;;19.09;57.61;96464.19;10479994;28;20413;-33
2023/06/03 02:17:26;;;;;;;0.88;0.80;;;;;;;19.05;57.72;96476.91;10476324;28;20048;-32
2023/06/03 02:22:27;;;;;;;1.27;1.17;;;;;;;19.03;57.38;96476.94;10491056;28;20329;-33
2023/06/03 02:27:27;;;;;;;0.95;0.88;;;;;;;19.02;57.35;96471.84;10479659;28;20545;-32
2023/06/03 02:32:28;;;;;;;1.00;1.00;;;;;;;19.01;57.24;96478.63;10504156;28;20043;-34
2023/06/03 02:37:30;;;;;;;1.20;1.10;;;;;;;19.00;57.10;96473.56;10478559;28;20042;-32
2023/06/03 02:42:31;;;;;;;1.25;1.15;;;;;;;19.00;57.06;96478.66;10477999;28;20020;-33
2023/06/03 02:47:32;;;;;;;0.80;0.73;;;;;;;18.98;57.08;96475.25;10504791;28;20032;-33
2023/06/03 02:52:35;;;;;;;1.30;1.20;;;;;;;19.08;58.89;96477.72;10493977;28;20024;-32
2023/06/03 02:57:37;;;;;;;1.10;0.93;;;;;;;19.26;57.91;96472.56;10470349;28;20036;-34
2023/06/03 03:02:39;;;;;;;1.15;1.05;;;;;;;19.28;57.79;96475.97;10495849;28;20047;-32
2023/06/03 03:07:40;;;;;;;1.48;1.20;;;;;;;19.05;57.82;96480.31;10494655;28;20379;-33
2023/06/03 03:12:41;;;;;;;0.93;0.93;;;;;;;18.92;57.06;96475.31;10494708;28;20029;-32
2023/06/03 03:17:42;;;;;;;1.30;1.20;;;;;;;18.83;57.17;96475.38;10488747;28;20290;-32
2023/06/03 03:22:44;;;;;;;1.13;1.05;;;;;;;18.78;57.22;96477.06;10472711;28;20112;-32
2023/06/03 03:27:48;;;;;;;1.83;1.73;;;;;;;18.71;56.74;96475.41;10476756;28;20028;-32
2023/06/03 03:32:48;;;;;;;1.40;1.30;;;;;;;18.68;57.09;96475.44;10471444;28;20071;-32
2023/06/03 03:38:01;;;;;;;1.45;1.35;;;;;;;18.70;57.10;96488.94;10476143;28;20040;-32
2023/06/03 03:43:03;;;;;;;1.77;1.67;;;;;;;18.69;57.03;96487.25;10475295;28;20032;-32
2023/06/03 03:48:06;;;;;;;2.10;1.85;;;;;;;18.63;56.84;96483.06;10469268;28;20032;-32
2023/06/03 03:53:21;;;;;;;1.70;1.60;;;;;;;18.94;56.66;96491.34;10483683;28;20032;-32
2023/06/03 03:58:26;;;;;;;2.42;1.80;;;;;;;19.13;55.95;96486.16;10460856;28;20036;-33
2023/06/03 04:03:30;;;;;;;2.25;1.90;;;;;;;18.95;56.53;96490.50;10475226;28;20517;-33
2023/06/03 04:08:45;;;;;;;2.00;1.90;;;;;;;18.83;56.38;96488.03;10468550;28;20046;-32
2023/06/03 04:13:46;;;;;;;3.67;1.85;;;;;;;18.72;56.42;96487.22;10509670;28;20057;-32
2023/06/03 04:18:46;;;;;;;3.78;2.85;;;;;;;18.68;56.50;96490.66;10468308;28;20036;-32
2023/06/03 04:23:47;;;;;;;2.72;2.03;;;;;;;18.66;56.70;96502.50;10471654;28;20055;-33
2023/06/03 04:28:48;;;;;;;2.42;2.22;;;;;;;18.58;56.70;96499.97;10492127;28;20025;-33
2023/06/03 04:33:50;;;;;;;2.97;2.60;;;;;;;18.64;56.56;96504.16;10472835;28;20059;-33
2023/06/03 04:38:51;;;;;;;2.60;2.40;;;;;;;18.63;56.63;96502.50;10473839;28;20469;-32
2023/06/03 04:43:52;;;;;;;5.28;2.70;;;;;;;18.61;56.44;96505.06;10472743;28;20024;-32
2023/06/03 04:48:55;;;;;;;3.00;2.70;;;;;;;18.80;56.18;96493.97;10473412;28;20071;-33
2023/06/03 04:53:56;;;;;;;3.53;2.20;;;;;;;19.04;55.81;96495.53;10470670;28;20021;-32
2023/06/03 04:59:00;;;;;;;3.35;2.92;;;;;;;19.03;55.84;96491.31;10472942;28;20047;-33
2023/06/03 05:04:03;;;;;;;3.53;2.65;;;;;;;18.86;55.85;96490.56;10473314;28;20028;-32
2023/06/03 05:09:05;;;;;;;3.70;2.80;;;;;;;18.76;56.05;96491.47;10470838;28;20028;-32
2023/06/03 05:14:07;;;;;;;2.50;2.30;;;;;;;18.66;56.23;96489.81;10473100;28;20029;-32
2023/06/03 05:19:08;;;;;;;2.88;2.58;;;;;;;18.66;56.39;96505.84;10471870;28;20036;-32
2023/06/03 05:24:09;;;;;;;5.63;3.17;;;;;;;18.63;56.27;96505.03;10471403;28;20024;-32
2023/06/03 05:29:09;;;;;;;4.03;2.50;;;;;;;18.63;56.30;96502.50;10491218;28;20506;-34
2023/06/03 05:34:10;;;;;;;4.43;2.70;;;;;;;18.63;56.38;96497.41;10471111;28;20298;-32
2023/06/03 05:39:12;;;;;;;3.33;2.80;;;;;;;18.61;56.50;96494.06;10477740;28;20043;-33
2023/06/03 05:44:12;;;;;;;3.45;2.65;;;;;;;18.56;56.44;96491.53;10477636;28;20035;-33
2023/06/03 05:49:13;;;;;;;3.58;2.67;;;;;;;18.84;55.95;96493.09;10480681;28;20500;-33
2023/06/03 05:54:13;;;;;;;3.00;2.77;;;;;;;19.03;55.54;96488.75;10479334;28;20021;-33
2023/06/03 05:59:14;;;;;;;3.65;2.70;;;;;;;19.00;55.77;96493.88;10480080;28;20289;-32
2023/06/03 06:04:17;;;;;;;2.75;2.55;;;;;;;18.83;55.70;96495.66;10474904;28;20035;-33
2023/06/03 06:09:18;;;;;;;3.08;2.50;;;;;;;18.74;56.08;96498.22;10479717;28;20029;-33
2023/06/03 06:14:20;;;;;;;4.35;2.80;;;;;;;18.71;56.07;96485.53;10475447;28;20406;-32
2023/06/03 06:19:22;;;;;;;3.05;2.58;;;;;;;18.65;55.95;96500.78;10496840;28;20043;-32
2023/06/03 06:24:23;;;;;;;4.70;2.63;;;;;;;18.65;56.07;96501.63;10479302;28;20032;-33
2023/06/03 06:29:25;;;;;;;3.10;2.80;;;;;;;18.67;56.03;96499.09;10472723;28;20029;-33
2023/06/03 06:34:31;;;;;;;4.07;2.85;;;;;;;18.63;56.14;96507.56;10497072;28;20103;-33
2023/06/03 06:39:32;;;;;;;4.85;3.15;;;;;;;18.63;56.11;96507.56;10477834;28;20032;-34
2023/06/03 06:44:43;;;;;;;3.90;2.80;;;;;;;18.65;56.18;96516.00;10487037;28;20028;-32
2023/06/03 06:49:44;;;;;;;3.58;2.78;;;;;;;18.94;55.96;96504.03;10509549;28;20029;-32
2023/06/03 06:54:45;;;;;;;3.22;2.63;;;;;;;19.10;54.89;96511.53;10493033;28;20028;-33
2023/06/03 06:59:46;;;;;;;3.53;2.72;;;;;;;18.93;55.66;96507.44;10496036;28;20033;-34
2023/06/03 07:04:50;;;;;;;3.08;2.58;;;;;;;18.82;55.80;96519.34;10471975;28;20497;-33
2023/06/03 07:09:51;;;;;;;2.78;2.58;;;;;;;18.75;55.86;96517.66;10477653;28;20021;-33
2023/06/03 07:14:52;;;;;;;3.13;2.88;;;;;;;18.69;55.97;96517.69;10474823;28;20394;-32
2023/06/03 07:19:52;;;;;;;3.28;2.80;;;;;;;18.68;56.10;96519.38;10477501;28;20115;-33
2023/06/03 07:24:53;;;;;;;3.17;2.72;;;;;;;18.63;56.01;96515.16;10480468;28;20077;-36
2023/06/03 07:29:58;;;;;;;2.97;2.55;;;;;;;18.62;56.03;96527.03;10480949;28;20048;-33
2023/06/03 07:34:58;;;;;;;3.35;2.85;;;;;;;18.59;56.18;96521.13;10491688;28;20395;-32
2023/06/03 07:39:59;;;;;;;3.85;2.80;;;;;;;18.65;56.17;96536.28;10492699;28;20028;-31
2023/06/03 07:44:59;;;;;;;3.08;2.67;;;;;;;18.72;56.15;96540.47;10476145;28;20033;-34
2023/06/03 07:50:02;;;;;;;4.07;3.10;;;;;;;19.02;55.50;96547.97;10488638;28;20555;-32
2023/06/03 07:55:07;;;;;;;3.53;2.70;;;;;;;19.09;54.97;96535.22;10493857;28;20497;-32
2023/06/03 08:00:07;;;;;;;3.42;2.85;;;;;;;18.94;55.67;96542.94;10490885;28;20029;-32
2023/06/03 08:05:14;;;;;;;4.68;2.95;;;;;;;18.88;55.73;96537.03;10493058;28;20042;-32
2023/06/03 08:10:21;;;;;;;3.00;2.72;;;;;;;18.91;55.64;96542.13;10488405;28;20025;-32
2023/06/03 08:15:27;;;;;;;3.80;2.85;;;;;;;18.91;55.82;96542.94;10492445;28;20036;-32
2023/06/03 08:20:28;;;;;;;2.35;2.15;;;;;;;18.92;55.91;96536.19;10485160;28;20047;-33
2023/06/03 08:25:29;;;;;;;2.95;2.67;;;;;;;18.91;56.03;96537.88;10491197;28;20028;-33
2023/06/03 08:30:29;;;;;;;3.80;2.83;;;;;;;18.91;56.01;96544.66;10492405;28;20055;-32
2023/06/03 08:35:30;;;;;;;2.40;2.20;;;;;;;18.90;56.15;96535.31;10483501;28;20322;-32
2023/06/03 08:40:33;;;;;;;2.45;2.03;;;;;;;18.93;56.08;96540.41;10490272;28;20811;-32
2023/06/03 08:45:52;;;;;;;2.45;2.25;;;;;;;19.06;56.75;96539.47;10492036;28;20044;-32
2023/06/03 08:51:04;;;;;;;3.47;2.58;;;;;;;19.23;56.61;96542.81;10484943;28;20111;-32
2023/06/03 08:56:05;;;;;;;2.58;2.38;;;;;;;19.18;56.44;96539.44;10491896;28;20035;-32
2023/06/03 09:01:05;;;;;;;2.67;2.17;;;;;;;19.08;56.61;96545.41;10498783;28;20034;-32
2023/06/03 09:06:07;;;;;;;2.15;1.95;;;;;;;19.03;56.46;96544.59;10490427;28;20028;-32
2023/06/03 09:11:11;;;;;;;2.40;2.20;;;;;;;19.01;56.61;96541.22;10490114;28;20098;-32
2023/06/03 09:16:12;;;;;;;1.90;1.80;;;;;;;19.00;56.64;96544.59;10488375;28;20025;-33
2023/06/03 09:21:13;;;;;;;2.20;2.00;;;;;;;18.97;56.35;96542.06;10491015;28;20355;-32
2023/06/03 09:26:13;;;;;;;2.40;2.20;;;;;;;19.00;56.55;96544.59;10482731;28;20060;-33
2023/06/03 09:31:14;;;;;;;2.00;1.80;;;;;;;18.99;56.50;96545.47;10497122;28;20039;-34
2023/06/03 09:36:17;;;;;;;2.17;1.98;;;;;;;18.99;56.41;96542.94;10490461;28;20032;-33
2023/06/03 09:41:25;;;;;;;2.40;2.20;;;;;;;19.00;57.41;96539.53;10485428;28;20570;-34
2023/06/03 09:46:26;;;;;;;2.13;2.03;;;;;;;19.19;57.15;96536.91;10490717;28;20079;-33
2023/06/03 09:51:42;;;;;;;2.60;2.40;;;;;;;19.26;56.56;96542.81;10484570;28;20051;-32
2023/06/03 09:56:47;;;;;;;2.10;1.83;;;;;;;19.14;57.02;96542.81;10498727;28;20024;-32
2023/06/03 10:01:49;;;;;;;2.13;1.92;;;;;;;19.05;57.02;96532.72;10488015;28;20032;-32
2023/06/03 10:07:07;;;;;;;2.22;2.03;;;;;;;19.05;56.75;96542.88;10487683;28;20040;-32
2023/06/03 10:12:08;;;;;;;2.20;2.00;;;;;;;19.03;56.97;96542.03;10489866;28;20099;-32
2023/06/03 10:17:09;;;;;;;2.10;1.90;;;;;;;19.02;56.84;96542.91;10488443;28;20094;-32
2023/06/03 10:22:16;;;;;;;2.22;2.05;;;;;;;19.02;56.76;96537.81;10490035;28;20028;-32
2023/06/03 10:27:17;;;;;;;2.33;1.88;;;;;;;19.02;56.79;96532.75;10493517;28;20032;-32
2023/06/03 10:32:20;;;;;;;1.85;1.75;;;;;;;19.00;56.75;96530.22;10496486;28;20036;-33
2023/06/03 10:37:23;;;;;;;1.80;1.70;;;;;;;19.01;56.64;96520.91;10503475;28;20032;-32
2023/06/03 10:42:24;;;;;;;2.20;1.77;;;;;;;19.17;57.87;96518.28;10496822;28;20029;-32
2023/06/03 10:47:31;;;;;;;1.92;1.73;;;;;;;19.32;56.63;96524.97;10496247;28;20037;-33
2023/06/03 10:53:02;;;;;;;1.92;1.83;;;;;;;19.19;57.44;96520.84;10487170;28;20039;-33
2023/06/03 10:58:10;;;;;;;2.10;2.00;;;;;;;19.11;57.35;96520.00;10504309;28;20028;-32
2023/06/03 11:03:15;;;;;;;1.88;1.70;;;;;;;19.08;57.35;96527.66;10494920;28;20033;-33
2023/06/03 11:08:53;;;;;;;1.77;1.65;;;;;;;19.07;57.07;96525.94;10494517;28;20058;-32
2023/06/03 11:13:54;;;;;;;2.10;1.85;;;;;;;19.04;57.14;96521.75;10490554;28;20040;-32
2023/06/03 11:19:27;;;;;;;1.70;1.60;;;;;;;19.04;57.08;96525.97;10487616;28;20035;-32
2023/06/03 11:24:43;;;;;;;3.00;1.90;;;;;;;19.03;57.00;96525.16;10495290;28;20118;-33
2023/06/03 11:29:43;;;;;;;1.65;1.55;;;;;;;19.04;57.00;96523.44;10488384;28;20552;-33
2023/06/03 11:34:45;;;;;;;1.92;1.77;;;;;;;19.03;57.06;96514.13;10492132;28;20167;-32
2023/06/03 11:39:58;;;;;;;1.80;1.70;;;;;;;19.21;57.90;96509.84;10494343;28;20029;-32
2023/06/03 11:45:16;;;;;;;1.80;1.70;;;;;;;19.35;57.55;96514.81;10494550;28;20032;-32
2023/06/03 11:50:17;;;;;;;1.73;1.63;;;;;;;19.25;57.46;96520.81;10502251;28;20036;-33
2023/06/03 11:55:25;;;;;;;2.35;1.80;;;;;;;19.13;57.58;96506.47;10494965;28;20033;-32
2023/06/03 12:00:26;;;;;;;2.20;2.00;;;;;;;19.11;57.50;96512.41;10492376;28;20063;-32
2023/06/03 12:05:27;;;;;;;1.60;1.50;;;;;;;19.09;57.32;96503.97;10493250;28;20449;-32
2023/06/03 12:10:29;;;;;;;1.50;1.40;;;;;;;19.05;57.33;96503.13;10490494;28;20120;-33
2023/06/03 12:15:29;;;;;;;1.88;1.58;;;;;;;19.06;57.05;96503.97;10493271;28;20615;-32
2023/06/03 12:20:29;;;;;;;1.33;1.23;;;;;;;19.03;57.21;96488.75;10488486;28;20131;-32
2023/06/03 12:25:31;;;;;;;1.80;1.53;;;;;;;19.07;57.12;96490.41;10500860;28;20040;-33
2023/06/03 12:30:33;;;;;;;1.42;1.30;;;;;;;19.05;57.00;96482.84;10486325;28;20513;-33
2023/06/03 12:35:34;;;;;;;1.90;1.80;;;;;;;19.09;59.81;96486.19;10485424;28;20072;-32
2023/06/03 12:40:35;;;;;;;1.60;1.50;;;;;;;19.29;57.50;96480.19;10492639;28;20565;-32
2023/06/03 12:45:36;;;;;;;1.40;1.30;;;;;;;19.35;57.10;96482.66;10492106;28;20398;-32
2023/06/03 12:50:37;;;;;;;1.55;1.45;;;;;;;19.23;57.67;96485.28;10492814;28;20033;-33
2023/06/03 12:55:38;;;;;;;1.70;1.60;;;;;;;19.17;57.71;96482.75;10487383;28;20039;-33
2023/06/03 13:00:38;;;;;;;2.10;1.60;;;;;;;19.12;57.71;96478.56;10492027;28;20414;-34
2023/06/03 13:05:39;;;;;;;2.03;1.80;;;;;;;19.12;57.62;96481.94;10486915;28;20043;-33
2023/06/03 13:10:39;;;;;;;1.67;1.58;;;;;;;19.10;57.68;96477.72;10491357;28;20124;-33
2023/06/03 13:15:40;;;;;;;1.53;1.43;;;;;;;19.10;57.49;96470.13;10477406;28;20040;-31
2023/06/03 13:20:40;;;;;;;2.28;1.80;;;;;;;19.09;57.60;96473.50;10492688;28;20042;-33
2023/06/03 13:25:41;;;;;;;2.00;1.80;;;;;;;19.09;57.56;96473.50;10483858;28;20482;-33
2023/06/03 13:30:41;;;;;;;1.50;1.40;;;;;;;19.09;57.50;96473.50;10490083;28;20510;-35
2023/06/03 13:35:43;;;;;;;1.58;1.25;;;;;;;19.20;58.63;96461.63;10491432;28;20036;-33
2023/06/03 13:40:43;;;;;;;1.63;1.52;;;;;;;19.35;57.99;96464.88;10489789;28;20036;-32
2023/06/03 13:45:43;;;;;;;1.63;1.33;;;;;;;19.33;57.73;96458.16;10488603;28;20102;-32
2023/06/03 13:50:44;;;;;;;1.57;1.47;;;;;;;19.21;57.96;96443.00;10498864;28;20763;-32
2023/06/03 13:55:44;;;;;;;1.60;1.50;;;;;;;19.16;57.69;96434.56;10483822;28;20047;-33
2023/06/03 14:00:44;;;;;;;1.60;1.50;;;;;;;19.13;57.97;96429.50;10496240;28;20043;-33
2023/06/03 14:05:46;;;;;;;1.50;1.40;;;;;;;19.12;57.75;96428.66;10497042;28;20483;-33
2023/06/03 14:10:47;;;;;;;1.80;1.70;;;;;;;19.12;57.66;96427.81;10495387;28;20522;-33
2023/06/03 14:15:47;;;;;;;1.52;1.42;;;;;;;19.10;57.62;96420.19;10497643;28;20083;-32
2023/06/03 14:20:48;;;;;;;1.40;1.30;;;;;;;19.09;57.63;96412.63;10496447;28;20040;-32
2023/06/03 14:25:48;;;;;;;1.30;1.20;;;;;;;19.09;57.33;96412.63;10497132;28;20044;-32
2023/06/03 14:30:49;;;;;;;1.65;1.55;;;;;;;19.10;58.13;96407.50;10492389;28;20032;-32
2023/06/03 14:35:49;;;;;;;1.30;1.20;;;;;;;19.28;58.38;96420.13;10505431;28;20055;-32
2023/06/03 14:40:49;;;;;;;1.30;1.13;;;;;;;19.41;57.72;96415.78;10503760;28;20530;-34
2023/06/03 14:45:50;;;;;;;1.20;1.10;;;;;;;19.25;57.95;96419.28;10496453;28;20502;-33
2023/06/03 14:50:50;;;;;;;1.67;1.57;;;;;;;19.21;58.14;96425.22;10503758;28;20483;-33
2023/06/03 14:55:51;;;;;;;1.90;1.80;;;;;;;19.16;57.94;96430.31;10488148;28;20498;-32
2023/06/03 15:00:51;;;;;;;1.30;1.20;;;;;;;19.14;57.84;96441.31;10496153;28;20302;-32
2023/06/03 15:05:52;;;;;;;1.60;1.50;;;;;;;19.12;57.61;96443.88;10494459;28;20049;-33
2023/06/03 15:10:52;;;;;;;1.50;1.40;;;;;;;19.10;57.44;96437.97;10488803;28;20033;-32
2023/06/03 15:15:52;;;;;;;1.40;1.30;;;;;;;19.09;57.59;96435.44;10510939;28;20764;-32
2023/06/03 15:20:53;;;;;;;1.47;1.37;;;;;;;19.08;57.28;96441.38;10493963;28;20123;-32
2023/06/03 15:25:54;;;;;;;1.17;1.07;;;;;;;19.07;57.33;96435.44;10495245;28;20075;-33
2023/06/03 15:30:55;;;;;;;1.50;1.40;;;;;;;19.14;60.33;96428.63;10494176;28;20032;-32
2023/06/03 15:35:55;;;;;;;1.10;1.00;;;;;;;19.33;58.17;96437.84;10494888;28;20036;-33
2023/06/03 15:40:56;;;;;;;1.20;1.10;;;;;;;19.36;57.32;96433.59;10494284;28;20062;-33
2023/06/03 15:45:56;;;;;;;1.20;1.10;;;;;;;19.26;57.93;96443.81;10493510;28;20041;-33
2023/06/03 15:50:57;;;;;;;1.10;1.10;;;;;;;19.17;57.89;96431.16;10494218;28;20029;-33
2023/06/03 15:55:57;;;;;;;1.85;1.50;;;;;;;19.15;57.90;96438.78;10489949;28;20040;-33
2023/06/03 16:00:58;;;;;;;1.37;1.27;;;;;;;19.10;57.65;96434.59;10497413;28;20032;-33
2023/06/03 16:05:58;;;;;;;1.52;1.33;;;;;;;19.09;57.33;96432.91;10492215;28;20037;-32
2023/06/03 16:10:59;;;;;;;1.33;1.23;;;;;;;19.08;57.35;96441.38;10493511;28;20525;-32
2023/06/03 16:16:00;;;;;;;1.63;1.52;;;;;;;19.06;57.08;96435.44;10484658;28;20492;-32
2023/06/03 16:21:00;;;;;;;1.07;0.97;;;;;;;19.05;57.05;96441.38;10492121;28;20174;-33
2023/06/03 16:26:01;;;;;;;1.25;1.15;;;;;;;19.06;57.21;96435.44;10491907;28;20048;-32
2023/06/03 16:31:02;;;;;;;1.17;1.08;;;;;;;19.21;58.08;96440.47;10505105;28;20063;-32
2023/06/03 16:36:02;;;;;;;1.05;1.00;;;;;;;19.37;57.54;96432.72;10492564;28;20034;-33
2023/06/03 16:41:03;;;;;;;1.20;1.10;;;;;;;19.26;58.03;96429.41;10483818;28;20071;-33
2023/06/03 16:46:03;;;;;;;1.30;1.20;;;;;;;19.20;57.82;96431.16;10491821;28;20029;-32
2023/06/03 16:51:03;;;;;;;1.20;1.10;;;;;;;19.15;57.99;96427.78;10490649;28;20024;-33
2023/06/03 16:56:05;;;;;;;1.60;1.50;;;;;;;19.14;57.89;96431.16;10498845;28;20047;-33
2023/06/03 17:01:06;;;;;;;1.30;1.20;;;;;;;19.13;57.52;96434.56;10494165;28;20111;-32
2023/06/03 17:06:07;;;;;;;1.47;1.37;;;;;;;19.12;57.62;96427.81;10498029;28;20115;-33
2023/06/03 17:11:07;;;;;;;1.30;1.20;;;;;;;19.12;57.57;96432.88;10491039;28;20048;-33
2023/06/03 17:16:08;;;;;;;1.55;1.45;;;;;;;19.10;57.45;96434.59;10484182;28;20051;-33
2023/06/03 17:21:10;;;;;;;1.40;1.30;;;;;;;19.10;57.38;96439.66;10490629;28;20064;-33
2023/06/03 17:26:11;;;;;;;1.40;1.30;;;;;;;19.19;59.55;96439.63;10490815;28;20048;-33
2023/06/03 17:31:11;;;;;;;1.10;1.00;;;;;;;19.38;57.89;96436.09;10489665;28;20162;-32
2023/06/03 17:36:12;;;;;;;1.23;1.13;;;;;;;19.33;57.75;96435.31;10497892;28;20024;-33
2023/06/03 17:41:12;;;;;;;1.35;1.23;;;;;;;19.21;57.69;96433.69;10497264;28;20377;-32
2023/06/03 17:46:13;;;;;;;1.40;1.17;;;;;;;19.16;57.87;96437.09;10499070;28;20552;-33
2023/06/03 17:51:13;;;;;;;1.17;1.07;;;;;;;19.15;57.66;96437.94;10497916;28;20106;-33
2023/06/03 17:56:13;;;;;;;1.20;1.10;;;;;;;19.13;57.41;96444.72;10515333;28;20051;-33
2023/06/03 18:01:14;;;;;;;1.10;1.00;;;;;;;19.12;57.66;96459.13;10495113;28;20298;-32
2023/06/03 18:06:15;;;;;;;1.33;1.23;;;;;;;19.10;57.41;96465.03;10492753;28;20033;-32
2023/06/03 18:11:15;;;;;;;1.60;1.43;;;;;;;19.10;57.24;96465.88;10497967;28;20025;-32
2023/06/03 18:16:16;;;;;;;1.20;1.10;;;;;;;19.08;57.11;96470.13;10496365;28;20028;-32
2023/06/03 18:21:16;;;;;;;1.27;1.17;;;;;;;19.11;58.29;96471.81;10497530;28;20301;-38
2023/06/03 18:26:16;;;;;;;1.10;1.00;;;;;;;19.31;58.19;96470.00;10496390;28;20054;-34
2023/06/03 18:31:17;;;;;;;1.17;1.07;;;;;;;19.42;57.46;96463.16;10497340;28;20043;-32
2023/06/03 18:36:18;;;;;;;1.17;1.07;;;;;;;19.28;58.01;96459.88;10499384;28;20487;-31
2023/06/03 18:41:18;;;;;;;1.33;1.23;;;;;;;19.23;57.79;96464.13;10496805;28;20029;-33
2023/06/03 18:46:18;;;;;;;2.60;1.00;;;;;;;19.19;57.79;96467.56;10498955;28;20502;-32
2023/06/03 18:51:19;;;;;;;1.20;1.10;;;;;;;19.16;57.57;96475.16;10493545;28;20028;-32
2023/06/03 18:56:19;;;;;;;3.17;1.73;;;;;;;19.14;57.65;96477.69;10491496;28;20036;-34
2023/06/03 19:01:21;;;;;;;2.40;1.70;;;;;;;19.12;57.51;96478.56;10499178;28;20301;-32
2023/06/03 19:06:22;;;;;;;1.95;1.40;;;;;;;19.09;57.29;96476.06;10496446;28;20051;-34
2023/06/03 19:11:22;;;;;;;1.98;1.77;;;;;;;19.10;57.49;96482.81;10492963;28;20120;-33
2023/06/03 19:16:23;;;;;;;1.97;1.43;;;;;;;19.10;57.30;96481.09;10495031;28;20032;-33
2023/06/03 19:21:23;;;;;;;1.60;1.50;;;;;;;19.17;59.16;96484.47;10490923;28;20410;-32
2023/06/03 19:26:23;;;;;;;1.40;1.30;;;;;;;19.38;58.19;96497.03;10486831;28;20513;-32
2023/06/03 19:31:26;;;;;;;0.90;0.90;;;;;;;19.37;57.94;96497.88;10503713;28;20384;-33
2023/06/03 19:36:27;;;;;;;1.30;1.20;;;;;;;19.25;58.21;96500.50;10493322;28;20497;-33
2023/06/03 19:41:28;;;;;;;1.17;1.08;;;;;;;19.18;57.65;96506.44;10503363;28;20779;-32
2023/06/03 19:46:31;;;;;;;1.77;1.30;;;;;;;19.16;57.80;96519.13;10497612;28;20039;-33
2023/06/03 19:51:31;;;;;;;1.63;1.52;;;;;;;19.14;57.46;96527.59;10494106;28;20043;-33
2023/06/03 19:56:32;;;;;;;1.50;1.40;;;;;;;19.14;57.61;96527.59;10492002;28;20042;-32
2023/06/03 20:01:32;;;;;;;1.50;1.40;;;;;;;19.13;57.42;96543.69;10489288;28;20305;-33
2023/06/03 20:06:36;;;;;;;1.77;1.60;;;;;;;19.11;57.37;96538.63;10490232;28;20036;-32
2023/06/03 20:11:37;;;;;;;1.50;1.40;;;;;;;19.11;57.36;96532.69;10487878;28;20054;-32
2023/06/03 20:16:37;;;;;;;1.63;1.53;;;;;;;19.11;57.70;96537.78;10493123;28;20043;-32
2023/06/03 20:21:37;;;;;;;1.20;1.08;;;;;;;19.29;58.28;96541.09;10484474;28;20025;-33
2023/06/03 20:26:38;;;;;;;1.20;1.10;;;;;;;19.44;57.41;96538.44;10490905;28;20045;-32
2023/06/03 20:31:38;;;;;;;1.43;1.33;;;;;;;19.29;57.77;96542.78;10501099;28;20505;-34
2023/06/03 20:36:39;;;;;;;1.17;1.00;;;;;;;19.21;57.93;96541.97;10483822;28;20756;-32
2023/06/03 20:41:40;;;;;;;1.40;1.30;;;;;;;19.14;57.72;96538.59;10492117;28;20496;-32
2023/06/03 20:46:40;;;;;;;1.23;1.10;;;;;;;19.14;57.56;96548.75;10488590;28;20044;-32
2023/06/03 20:51:42;;;;;;;1.50;1.40;;;;;;;19.14;57.45;96545.38;10500091;28;20445;-33
2023/06/03 20:56:43;;;;;;;1.60;1.50;;;;;;;19.13;57.66;96546.22;10489769;28;20032;-32
2023/06/03 21:01:43;;;;;;;2.97;1.75;;;;;;;19.13;57.53;96557.22;10491417;28;20044;-33
2023/06/03 21:06:44;;;;;;;1.77;1.67;;;;;;;19.12;57.58;96544.53;10486832;28;20565;-32
2023/06/03 21:11:44;;;;;;;1.90;1.73;;;;;;;19.12;57.36;96547.94;10499881;28;20282;-33
2023/06/03 21:16:45;;;;;;;1.20;1.10;;;;;;;19.20;59.90;96552.97;10489818;28;20044;-32
2023/06/03 21:21:45;;;;;;;1.00;1.00;;;;;;;19.37;57.86;96546.13;10483127;28;20028;-32
2023/06/03 21:26:46;;;;;;;1.10;1.10;;;;;;;19.38;57.59;96543.56;10490958;28;20032;-33
2023/06/03 21:31:46;;;;;;;1.13;1.02;;;;;;;19.26;57.95;96548.72;10498262;28;20024;-33
2023/06/03 21:36:46;;;;;;;1.20;1.10;;;;;;;19.20;57.83;96545.38;10489922;28;20059;-33
2023/06/03 21:41:47;;;;;;;1.80;1.00;;;;;;;19.16;57.78;96547.03;10490134;28;20556;-32
2023/06/03 21:46:47;;;;;;;0.80;0.80;;;;;;;19.14;57.42;96537.75;10484073;28;20051;-32
2023/06/03 21:51:47;;;;;;;1.23;1.13;;;;;;;19.13;57.29;96546.22;10490983;28;20385;-34
2023/06/03 21:56:48;;;;;;;1.33;1.23;;;;;;;19.12;57.20;96542.84;10484806;28;20106;-33
2023/06/03 22:01:48;;;;;;;1.47;1.23;;;;;;;19.13;57.23;96546.22;10490358;28;20514;-32
2023/06/03 22:06:48;;;;;;;1.30;1.20;;;;;;;19.11;57.31;96543.72;10483847;28;20067;-33
2023/06/03 22:11:49;;;;;;;1.20;1.10;;;;;;;19.11;57.39;96542.84;10488301;28;20510;-32
2023/06/03 22:16:50;;;;;;;1.25;1.05;;;;;;;19.27;58.41;96539.41;10489870;28;20260;-33
2023/06/03 22:21:50;;;;;;;1.10;0.98;;;;;;;19.43;57.99;96539.28;10509028;28;20490;-32
2023/06/03 22:26:53;;;;;;;1.23;1.13;;;;;;;19.33;57.95;96531.78;10498268;28;20123;-33
2023/06/03 22:31:53;;;;;;;1.58;1.33;;;;;;;19.23;57.95;96532.66;10497395;28;20028;-33
2023/06/03 22:36:53;;;;;;;1.20;1.10;;;;;;;19.18;57.65;96534.34;10496049;28;20032;-33
2023/06/03 22:41:54;;;;;;;1.33;1.23;;;;;;;19.16;57.48;96531.00;10496933;28;20038;-33
2023/06/03 22:46:54;;;;;;;1.10;1.00;;;;;;;19.14;57.43;96542.81;10490820;28;20025;-32
2023/06/03 22:51:55;;;;;;;0.93;0.90;;;;;;;19.13;57.16;96538.59;10496770;28;20271;-33
2023/06/03 22:56:55;;;;;;;1.33;1.23;;;;;;;19.13;57.30;96536.06;10495238;28;20134;-33
2023/06/03 23:01:56;;;;;;;1.27;1.17;;;;;;;19.12;57.24;96536.91;10494559;28;20043;-32
2023/06/03 23:06:56;;;;;;;1.40;1.30;;;;;;;19.11;57.16;96543.72;10494432;28;20031;-32
2023/06/03 23:11:56;;;;;;;1.27;1.17;;;;;;;19.15;59.65;96541.97;10498568;28;20028;-32
2023/06/03 23:16:57;;;;;;;2.30;1.17;;;;;;;19.35;58.02;96541.03;10497244;28;20036;-33
2023/06/03 23:22:00;;;;;;;1.30;1.20;;;;;;;19.41;57.35;96537.63;10494321;28;20035;-32